Time;durP1;ratioP1;P1;durP2;ratioP2;P2;SDS_P1;SDS_P2;PMS_P1;PMS_P2;Temp;Humidity;BMP_temperature;BMP_pressure;BME280_temperature;BME280_humidity;BME280_pressure;Samples;Min_cycle;Max_cycle;Signal;HPM_P1;HPM_P2
2021/12/31 00:01:17;;;;;;;45.95;27.83;;;;;;;12.53;73.87;99489.97;5090865;28;20031;-48
2021/12/31 00:03:43;;;;;;;30.40;23.50;;;;;;;12.49;74.43;99483.47;5092202;28;20178;-49
2021/12/31 00:06:09;;;;;;;20.20;14.85;;;;;;;12.48;73.59;99475.78;5092251;28;20536;-50
2021/12/31 00:08:35;;;;;;;25.75;13.80;;;;;;;12.43;74.40;99478.97;5092156;28;20023;-49
2021/12/31 00:11:01;;;;;;;50.83;11.27;;;;;;;12.36;74.09;99480.78;5090709;28;20440;-49
2021/12/31 00:13:28;;;;;;;51.70;11.68;;;;;;;12.04;75.22;99479.50;5092049;28;20024;-50
2021/12/31 00:15:54;;;;;;;23.80;10.63;;;;;;;12.01;75.61;99483.31;5091981;28;20034;-49
2021/12/31 00:18:20;;;;;;;31.17;12.10;;;;;;;11.95;75.52;99482.28;5092000;28;20095;-49
2021/12/31 00:20:45;;;;;;;48.42;21.98;;;;;;;11.97;75.31;99479.44;5091956;28;20027;-49
2021/12/31 00:23:14;;;;;;;48.85;12.95;;;;;;;11.87;74.72;99478.91;5091894;28;20462;-49
2021/12/31 00:25:42;;;;;;;74.93;13.10;;;;;;;11.60;75.10;99484.75;5091592;28;20103;-49
2021/12/31 00:28:09;;;;;;;64.28;12.02;;;;;;;11.33;76.00;99486.28;5091830;28;20086;-48
2021/12/31 00:30:36;;;;;;;55.97;12.50;;;;;;;11.06;77.16;99489.59;5091879;28;20024;-49
2021/12/31 00:33:02;;;;;;;40.30;16.95;;;;;;;10.79;78.51;99484.03;5091782;28;20020;-49
2021/12/31 00:35:29;;;;;;;22.90;9.98;;;;;;;10.83;78.20;99493.16;5090203;28;20044;-49
2021/12/31 00:37:55;;;;;;;15.60;8.30;;;;;;;10.90;77.66;99493.25;5090222;28;20024;-49
2021/12/31 00:40:22;;;;;;;19.23;11.32;;;;;;;10.90;77.57;99491.41;5091670;28;20036;-49
2021/12/31 00:42:48;;;;;;;14.52;8.18;;;;;;;10.88;77.57;99490.78;5091768;28;20385;-49
2021/12/31 00:45:17;;;;;;;9.63;6.28;;;;;;;10.70;77.57;99492.97;5091586;28;20485;-49
2021/12/31 00:47:43;;;;;;;22.40;11.05;;;;;;;10.52;78.28;99491.53;5091634;28;20565;-49
2021/12/31 00:50:10;;;;;;;18.05;8.13;;;;;;;10.50;78.24;99487.44;5091680;28;20047;-49
2021/12/31 00:52:36;;;;;;;24.08;16.73;;;;;;;10.39;78.25;99486.09;5091939;28;20047;-49
2021/12/31 00:55:03;;;;;;;23.75;18.00;;;;;;;10.35;78.07;99490.06;5091582;28;20422;-49
2021/12/31 00:57:29;;;;;;;27.80;18.67;;;;;;;10.28;77.83;99487.31;5091571;28;20432;-49
2021/12/31 00:59:55;;;;;;;44.30;38.60;;;;;;;10.24;78.18;99487.81;5090292;28;20020;-49
2021/12/31 01:02:23;;;;;;;23.02;17.58;;;;;;;10.29;78.16;99477.63;5091505;28;20028;-49
2021/12/31 01:04:49;;;;;;;15.18;13.40;;;;;;;10.35;78.04;99482.19;5091498;28;20024;-49
2021/12/31 01:07:15;;;;;;;20.27;15.35;;;;;;;10.58;78.54;99476.84;5090139;28;20031;-49
2021/12/31 01:09:40;;;;;;;10.15;7.47;;;;;;;10.82;77.42;99478.38;5090497;28;20405;-49
2021/12/31 01:12:09;;;;;;;21.20;14.30;;;;;;;10.89;77.17;99468.00;5091467;28;20528;-50
2021/12/31 01:14:39;;;;;;;26.67;9.73;;;;;;;10.89;77.33;99465.38;5091510;28;20031;-49
2021/12/31 01:17:10;;;;;;;12.35;6.68;;;;;;;10.94;77.79;99457.72;5091435;28;20028;-49
2021/12/31 01:19:45;;;;;;;14.45;6.38;;;;;;;10.91;77.25;99464.19;5091500;28;20089;-49
2021/12/31 01:22:12;;;;;;;;;;;;;;;10.78;78.13;99454.34;5091862;28;20311;-49
2021/12/31 01:24:38;;;;;;;55.58;30.23;;;;;;;10.71;78.89;99460.50;5089997;28;19978;-49
2021/12/31 01:27:04;;;;;;;28.27;8.00;;;;;;;10.77;78.23;99462.38;5091288;28;20059;-49
2021/12/31 01:29:29;;;;;;;24.05;8.13;;;;;;;10.66;78.23;99460.22;5091328;28;20099;-49
2021/12/31 01:31:55;;;;;;;22.98;7.75;;;;;;;10.56;78.63;99460.47;5089967;28;20493;-48
2021/12/31 01:34:24;;;;;;;33.25;9.52;;;;;;;10.49;79.13;99462.22;5089716;28;20040;-49
2021/12/31 01:36:50;;;;;;;25.08;9.70;;;;;;;10.42;79.36;99456.84;5092850;28;20534;-50
2021/12/31 01:39:16;;;;;;;34.42;10.73;;;;;;;10.40;80.09;99461.47;5094826;28;20070;-50
2021/12/31 01:41:42;;;;;;;22.50;9.70;;;;;;;10.40;80.10;99469.31;5094811;28;20055;-50
2021/12/31 01:44:08;;;;;;;33.30;10.38;;;;;;;10.41;80.36;99460.47;5094717;28;20367;-49
2021/12/31 01:46:36;;;;;;;29.23;12.73;;;;;;;10.44;80.61;99465.34;5094665;28;20047;-49
2021/12/31 01:49:02;;;;;;;36.03;13.20;;;;;;;10.51;80.73;99461.03;5094725;28;20024;-49
2021/12/31 01:51:29;;;;;;;36.55;13.15;;;;;;;10.58;80.44;99461.94;5094587;28;20020;-50
2021/12/31 01:53:55;;;;;;;25.73;13.48;;;;;;;10.68;80.34;99458.22;5094585;28;20140;-51
2021/12/31 01:56:22;;;;;;;29.08;15.10;;;;;;;10.82;80.22;99467.06;5094554;28;20070;-50
2021/12/31 01:58:54;;;;;;;27.88;14.05;;;;;;;11.03;79.67;99463.69;5094498;28;20031;-50
2021/12/31 02:01:22;;;;;;;25.67;16.15;;;;;;;11.18;78.94;99461.84;5094486;28;20055;-51
2021/12/31 02:03:50;;;;;;;33.13;16.63;;;;;;;11.38;78.33;99462.06;5094385;28;20047;-51
2021/12/31 02:06:16;;;;;;;37.15;12.93;;;;;;;11.53;77.98;99456.75;5094331;28;20390;-50
2021/12/31 02:08:42;;;;;;;21.80;11.30;;;;;;;11.62;76.39;99452.22;5094248;28;20016;-51
2021/12/31 02:11:07;;;;;;;19.40;11.88;;;;;;;11.54;75.95;99445.25;5094264;28;20031;-51
2021/12/31 02:13:35;;;;;;;19.48;13.90;;;;;;;11.48;75.76;99443.38;5094209;28;20024;-51
2021/12/31 02:16:01;;;;;;;33.75;19.13;;;;;;;11.49;75.23;99448.44;5094139;28;20074;-50
2021/12/31 02:18:30;;;;;;;14.30;8.38;;;;;;;11.50;75.16;99454.50;5092743;28;20019;-50
2021/12/31 02:20:56;;;;;;;14.93;9.13;;;;;;;11.36;75.22;99456.19;5094061;28;20012;-50
2021/12/31 02:23:25;;;;;;;13.95;10.98;;;;;;;11.26;74.72;99453.06;5092705;28;20062;-51
2021/12/31 02:25:52;;;;;;;10.25;9.10;;;;;;;11.09;74.64;99458.53;5093937;28;20035;-50
2021/12/31 02:28:19;;;;;;;10.25;8.65;;;;;;;10.89;74.71;99453.03;5093955;28;20027;-50
2021/12/31 02:30:46;;;;;;;9.48;7.55;;;;;;;10.72;74.92;99459.47;5093839;28;20386;-50
2021/12/31 02:33:12;;;;;;;15.40;10.32;;;;;;;10.57;75.84;99452.44;5093838;28;20050;-51
2021/12/31 02:35:39;;;;;;;14.63;11.50;;;;;;;10.67;75.31;99446.91;5093482;28;20476;-51
2021/12/31 02:38:07;;;;;;;12.35;8.73;;;;;;;10.54;74.95;99441.47;5093740;28;20040;-50
2021/12/31 02:40:34;;;;;;;12.30;8.43;;;;;;;10.35;75.11;99432.34;5092188;28;20085;-51
2021/12/31 02:43:00;;;;;;;7.97;5.75;;;;;;;10.21;75.58;99444.41;5093647;28;20085;-51
2021/12/31 02:45:34;;;;;;;11.73;7.53;;;;;;;10.10;75.69;99437.81;5093519;28;20056;-51
2021/12/31 02:48:03;;;;;;;12.13;6.50;;;;;;;10.07;75.24;99437.34;5093527;28;20028;-51
2021/12/31 02:50:34;;;;;;;10.07;6.82;;;;;;;9.99;75.13;99439.03;5093461;28;20389;-50
2021/12/31 02:53:09;;;;;;;8.20;6.07;;;;;;;9.89;75.10;99443.72;5093508;28;20510;-50
2021/12/31 02:55:36;;;;;;;8.93;7.72;;;;;;;9.76;75.56;99446.13;5092090;28;20391;-51
2021/12/31 02:58:05;;;;;;;7.47;6.10;;;;;;;9.71;75.90;99436.16;5093376;28;20024;-50
2021/12/31 03:00:32;;;;;;;11.30;7.97;;;;;;;9.65;76.15;99436.84;5093309;28;20049;-50
2021/12/31 03:03:04;;;;;;;12.88;7.43;;;;;;;9.77;76.71;99437.25;5093293;28;20048;-51
2021/12/31 03:05:31;;;;;;;16.52;9.88;;;;;;;9.91;76.11;99431.25;5093191;28;20024;-50
2021/12/31 03:07:58;;;;;;;9.27;6.80;;;;;;;9.95;75.85;99431.72;5093182;28;20012;-50
2021/12/31 03:10:26;;;;;;;19.42;12.15;;;;;;;9.98;76.22;99432.16;5091790;28;20028;-51
2021/12/31 03:12:54;;;;;;;11.98;8.13;;;;;;;10.12;76.31;99425.31;5093078;28;20031;-50
2021/12/31 03:15:20;;;;;;;12.55;7.10;;;;;;;10.24;75.92;99422.25;5092986;28;20028;-50
2021/12/31 03:17:47;;;;;;;12.23;8.02;;;;;;;10.50;75.80;99421.81;5092978;28;20022;-51
2021/12/31 03:20:17;;;;;;;18.75;9.32;;;;;;;10.66;75.53;99420.81;5092935;28;20028;-51
2021/12/31 03:22:43;;;;;;;13.15;8.15;;;;;;;11.08;75.29;99422.75;5092892;28;20069;-51
2021/12/31 03:25:12;;;;;;;32.13;12.40;;;;;;;11.45;74.19;99427.97;5092754;28;20100;-50
2021/12/31 03:27:37;;;;;;;19.48;11.07;;;;;;;11.58;73.47;99422.84;5092817;28;20489;-51
2021/12/31 03:30:05;;;;;;;18.05;9.80;;;;;;;11.58;72.13;99422.84;5091367;28;20028;-50
2021/12/31 03:32:31;;;;;;;29.90;17.17;;;;;;;11.59;72.26;99422.66;5091348;28;20050;-51
2021/12/31 03:34:57;;;;;;;18.77;10.38;;;;;;;11.56;71.46;99415.13;5092606;28;20509;-51
2021/12/31 03:37:23;;;;;;;13.65;8.43;;;;;;;11.51;71.34;99420.16;5092592;28;20056;-51
2021/12/31 03:39:48;;;;;;;18.55;10.73;;;;;;;11.36;71.04;99414.16;5092571;28;20035;-51
2021/12/31 03:42:16;;;;;;;12.35;8.68;;;;;;;11.18;71.28;99418.00;5092526;28;20026;-51
2021/12/31 03:44:42;;;;;;;16.20;10.02;;;;;;;11.01;71.86;99416.63;5092369;28;20020;-50
2021/12/31 03:47:08;;;;;;;29.42;13.82;;;;;;;10.87;71.97;99410.41;5091155;28;20046;-50
2021/12/31 03:49:34;;;;;;;35.13;18.08;;;;;;;10.91;73.26;99408.22;5092460;28;20493;-50
2021/12/31 03:52:00;;;;;;;25.50;15.38;;;;;;;10.92;72.21;99400.13;5092342;28;20397;-50
2021/12/31 03:54:26;;;;;;;11.80;7.90;;;;;;;10.84;72.13;99395.00;5092312;28;20035;-50
2021/12/31 03:56:52;;;;;;;42.90;18.00;;;;;;;10.55;72.47;99391.44;5092329;28;20020;-50
2021/12/31 03:59:17;;;;;;;24.25;16.13;;;;;;;10.36;72.99;99384.09;5090403;28;20543;-49
2021/12/31 04:01:43;;;;;;;17.30;10.57;;;;;;;10.07;73.61;99383.06;5090878;28;20157;-50
2021/12/31 04:04:10;;;;;;;20.30;10.05;;;;;;;9.84;74.33;99379.69;5090804;28;20035;-50
2021/12/31 04:06:36;;;;;;;11.13;6.93;;;;;;;9.89;74.66;99374.75;5092086;28;20089;-50
2021/12/31 04:09:02;;;;;;;7.00;5.03;;;;;;;9.92;73.89;99375.19;5092126;28;20502;-50
2021/12/31 04:11:27;;;;;;;6.70;5.60;;;;;;;9.77;74.15;99364.66;5092165;28;20383;-50
2021/12/31 04:13:53;;;;;;;7.57;5.60;;;;;;;9.58;74.97;99363.38;5090770;28;20122;-50
2021/12/31 04:16:19;;;;;;;9.43;5.75;;;;;;;9.51;75.79;99365.06;5091999;28;20111;-50
2021/12/31 04:18:45;;;;;;;9.77;6.78;;;;;;;9.49;76.11;99368.84;5091978;28;20024;-50
2021/12/31 04:21:15;;;;;;;7.60;4.60;;;;;;;9.47;76.26;99369.03;5090648;28;20020;-50
2021/12/31 04:23:50;;;;;;;12.10;7.30;;;;;;;9.45;76.27;99372.81;5091897;28;20028;-50
2021/12/31 04:26:16;;;;;;;19.13;8.90;;;;;;;9.49;76.47;99384.59;5090715;28;20086;-50
2021/12/31 04:28:42;;;;;;;11.25;5.22;;;;;;;9.60;76.47;99382.34;5091891;28;20032;-50
2021/12/31 04:31:08;;;;;;;20.85;9.75;;;;;;;9.77;76.39;99388.25;5091854;28;20024;-50
2021/12/31 04:33:33;;;;;;;8.88;6.53;;;;;;;9.95;75.69;99390.56;5091858;28;20653;-50
2021/12/31 04:35:59;;;;;;;9.77;6.72;;;;;;;10.00;74.92;99392.66;5091588;28;20052;-50
2021/12/31 04:38:25;;;;;;;30.95;11.75;;;;;;;10.08;75.15;99391.75;5091762;28;20065;-50
2021/12/31 04:40:50;;;;;;;16.00;7.35;;;;;;;10.24;74.75;99394.22;5090417;28;20024;-50
2021/12/31 04:43:16;;;;;;;17.35;9.40;;;;;;;10.36;74.39;99392.81;5091777;28;20035;-49
2021/12/31 04:45:42;;;;;;;14.45;8.43;;;;;;;10.35;73.74;99387.72;5091625;28;20097;-50
2021/12/31 04:48:08;;;;;;;37.30;14.00;;;;;;;10.27;73.63;99375.47;5091779;28;20031;-50
2021/12/31 04:50:34;;;;;;;37.42;18.17;;;;;;;10.25;73.13;99382.72;5091653;28;20024;-50
2021/12/31 04:53:02;;;;;;;32.97;16.08;;;;;;;10.24;73.94;99377.66;5091786;28;20027;-49
2021/12/31 04:55:28;;;;;;;21.15;8.98;;;;;;;10.28;73.62;99374.50;5091731;28;20062;-50
2021/12/31 04:57:53;;;;;;;11.23;7.55;;;;;;;10.24;73.29;99362.75;5090400;28;20428;-49
2021/12/31 05:00:19;;;;;;;18.60;8.18;;;;;;;10.19;72.76;99365.88;5090326;28;20034;-50
2021/12/31 05:02:45;;;;;;;9.75;5.15;;;;;;;10.08;72.56;99363.72;5091638;28;20417;-49
2021/12/31 05:05:11;;;;;;;6.68;4.35;;;;;;;9.93;72.82;99355.03;5091481;28;20114;-50
2021/12/31 05:07:37;;;;;;;11.02;4.15;;;;;;;9.74;73.32;99354.56;5091570;28;20095;-50
2021/12/31 05:10:03;;;;;;;10.02;5.70;;;;;;;9.62;73.67;99348.13;5091529;28;20116;-50
2021/12/31 05:12:32;;;;;;;10.93;6.32;;;;;;;9.53;74.37;99338.69;5092956;28;20509;-50
2021/12/31 05:15:00;;;;;;;12.77;5.82;;;;;;;9.46;75.17;99346.44;5095405;28;20031;-50
2021/12/31 05:17:26;;;;;;;4.65;2.78;;;;;;;9.57;74.84;99353.06;5095323;28;20091;-50
2021/12/31 05:19:52;;;;;;;6.10;4.15;;;;;;;9.63;75.04;99359.41;5093929;28;20082;-50
2021/12/31 05:22:18;;;;;;;6.47;4.60;;;;;;;9.69;74.50;99369.19;5095245;28;20012;-50
2021/12/31 05:24:43;;;;;;;7.95;6.35;;;;;;;9.66;74.50;99354.63;5095095;28;20443;-50
2021/12/31 05:27:09;;;;;;;6.75;3.95;;;;;;;9.61;74.70;99359.59;5093812;28;20016;-49
2021/12/31 05:29:35;;;;;;;6.30;3.28;;;;;;;9.59;74.86;99345.84;5093764;28;20020;-50
2021/12/31 05:32:02;;;;;;;5.57;3.53;;;;;;;9.58;75.01;99354.72;5093683;28;20028;-50
2021/12/31 05:34:27;;;;;;;5.93;3.28;;;;;;;9.61;74.98;99349.09;5093399;28;20039;-50
2021/12/31 05:36:53;;;;;;;7.82;4.63;;;;;;;9.76;75.00;99342.09;5093623;28;20032;-50
2021/12/31 05:39:19;;;;;;;8.95;3.08;;;;;;;9.88;74.19;99339.00;5093578;28;20077;-50
2021/12/31 05:41:44;;;;;;;9.45;4.03;;;;;;;9.97;74.24;99340.56;5093505;28;20039;-50
2021/12/31 05:44:10;;;;;;;6.85;4.05;;;;;;;9.99;73.88;99339.38;5093463;28;20073;-50
2021/12/31 05:46:36;;;;;;;9.27;4.85;;;;;;;10.08;73.96;99340.13;5093437;28;20034;-50
2021/12/31 05:49:04;;;;;;;13.60;5.95;;;;;;;10.34;73.84;99334.44;5093387;28;20034;-50
2021/12/31 05:51:31;;;;;;;9.27;4.22;;;;;;;10.57;72.05;99336.13;5093342;28;20028;-50
2021/12/31 05:53:57;;;;;;;7.53;4.25;;;;;;;10.70;71.77;99330.22;5094655;28;20020;-50
2021/12/31 05:56:23;;;;;;;6.68;3.53;;;;;;;10.73;71.76;99337.72;5093245;28;20027;-50
2021/12/31 05:58:49;;;;;;;4.68;3.55;;;;;;;10.67;71.06;99334.03;5094482;28;20016;-50
2021/12/31 06:01:15;;;;;;;13.57;8.88;;;;;;;10.65;71.40;99338.66;5094526;28;20478;-50
2021/12/31 06:03:40;;;;;;;6.90;4.05;;;;;;;10.62;71.18;99352.13;5094430;28;20020;-50
2021/12/31 06:06:06;;;;;;;6.10;4.45;;;;;;;10.50;71.55;99346.56;5092955;28;20448;-51
2021/12/31 06:08:32;;;;;;;7.10;3.95;;;;;;;10.32;72.01;99357.44;5093048;28;20031;-51
2021/12/31 06:10:57;;;;;;;10.68;4.70;;;;;;;10.14;72.51;99360.38;5092912;28;20024;-50
2021/12/31 06:13:23;;;;;;;7.80;4.57;;;;;;;10.02;72.91;99372.31;5092954;28;20085;-50
2021/12/31 06:15:55;;;;;;;7.90;5.05;;;;;;;9.83;73.43;99378.06;5092859;28;20031;-50
2021/12/31 06:18:21;;;;;;;9.40;4.80;;;;;;;9.76;73.98;99378.78;5094244;28;20063;-50
2021/12/31 06:20:47;;;;;;;14.70;4.47;;;;;;;9.63;73.99;99378.56;5094093;28;20047;-50
2021/12/31 06:23:13;;;;;;;6.65;4.93;;;;;;;9.56;74.41;99377.66;5093910;28;20020;-50
2021/12/31 06:25:38;;;;;;;10.40;4.65;;;;;;;9.54;74.54;99377.81;5092592;28;20054;-50
2021/12/31 06:28:04;;;;;;;7.32;4.18;;;;;;;9.51;74.46;99374.75;5093934;28;20021;-50
2021/12/31 06:30:30;;;;;;;5.07;3.80;;;;;;;9.43;74.61;99378.22;5093927;28;20442;-50
2021/12/31 06:32:55;;;;;;;7.30;4.25;;;;;;;9.36;74.42;99383.38;5092564;28;20016;-50
2021/12/31 06:35:22;;;;;;;7.40;4.20;;;;;;;9.35;74.45;99388.78;5092229;28;20081;-50
2021/12/31 06:37:51;;;;;;;6.47;3.38;;;;;;;9.33;74.08;99394.19;5092415;28;20039;-50
2021/12/31 06:40:17;;;;;;;6.15;4.10;;;;;;;9.32;73.91;99397.81;5093716;28;20069;-50
2021/12/31 06:42:42;;;;;;;4.13;2.85;;;;;;;9.32;74.04;99397.00;5093689;28;20028;-50
2021/12/31 06:45:08;;;;;;;6.90;3.17;;;;;;;9.30;73.97;99393.75;5092250;28;20566;-50
2021/12/31 06:47:34;;;;;;;10.50;3.00;;;;;;;9.25;73.90;99399.47;5093632;28;20032;-51
2021/12/31 06:50:00;;;;;;;4.50;3.15;;;;;;;9.17;73.87;99404.75;5092241;28;20448;-50
2021/12/31 06:52:26;;;;;;;7.28;3.30;;;;;;;9.17;74.10;99407.38;5093786;28;20016;-50
2021/12/31 06:54:51;;;;;;;8.60;3.72;;;;;;;9.15;73.80;99409.38;5092161;28;20109;-51
2021/12/31 06:57:17;;;;;;;4.50;3.42;;;;;;;9.14;74.04;99405.13;5092178;28;20070;-50
2021/12/31 06:59:43;;;;;;;4.72;2.67;;;;;;;9.14;73.93;99402.50;5093396;28;20028;-50
2021/12/31 07:02:09;;;;;;;6.55;4.43;;;;;;;9.11;73.89;99398.41;5093307;28;20030;-50
2021/12/31 07:04:34;;;;;;;4.50;3.10;;;;;;;9.10;73.67;99406.47;5093522;28;20146;-50
2021/12/31 07:07:01;;;;;;;6.97;3.95;;;;;;;9.05;74.29;99414.00;5091865;28;20494;-51
2021/12/31 07:09:26;;;;;;;6.63;3.80;;;;;;;9.02;74.41;99419.59;5091922;28;20035;-51
2021/12/31 07:11:52;;;;;;;5.30;3.35;;;;;;;8.98;74.49;99430.41;5091776;28;20024;-50
2021/12/31 07:14:18;;;;;;;5.82;4.07;;;;;;;9.03;74.18;99436.94;5091776;28;20024;-50
2021/12/31 07:16:43;;;;;;;6.18;3.97;;;;;;;9.08;74.27;99434.63;5091712;28;20032;-50
2021/12/31 07:19:09;;;;;;;7.85;4.05;;;;;;;9.14;74.02;99431.31;5091676;28;20047;-50
2021/12/31 07:21:35;;;;;;;5.38;3.63;;;;;;;9.18;73.75;99425.56;5092922;28;20073;-50
2021/12/31 07:24:01;;;;;;;6.22;3.97;;;;;;;9.21;73.56;99421.75;5091495;28;20028;-50
2021/12/31 07:26:27;;;;;;;6.95;3.10;;;;;;;9.29;73.58;99426.16;5092824;28;20501;-50
2021/12/31 07:28:52;;;;;;;3.50;2.30;;;;;;;9.34;73.45;99414.16;5092795;28;20103;-50
2021/12/31 07:31:18;;;;;;;8.57;3.88;;;;;;;9.46;72.70;99426.88;5091459;28;20034;-50
2021/12/31 07:33:44;;;;;;;7.15;4.40;;;;;;;9.50;72.20;99430.75;5092034;28;20028;-50
2021/12/31 07:36:09;;;;;;;8.25;5.00;;;;;;;9.53;72.81;99427.78;5091051;28;20048;-51
2021/12/31 07:38:39;;;;;;;6.88;4.78;;;;;;;10.01;71.64;99425.75;5092624;28;20055;-50
2021/12/31 07:41:05;;;;;;;14.60;7.57;;;;;;;10.58;70.45;99427.81;5092570;28;20405;-51
2021/12/31 07:43:31;;;;;;;9.10;5.53;;;;;;;10.94;68.69;99427.03;5091181;28;20052;-51
2021/12/31 07:45:57;;;;;;;10.05;6.97;;;;;;;11.32;67.08;99429.47;5091076;28;20054;-51
2021/12/31 07:48:23;;;;;;;14.05;7.25;;;;;;;11.74;65.84;99440.19;5091152;28;20020;-51
2021/12/31 07:50:50;;;;;;;19.85;9.10;;;;;;;11.91;65.67;99433.69;5091094;28;20012;-51
2021/12/31 07:53:17;;;;;;;20.60;12.10;;;;;;;12.21;63.48;99441.38;5091039;28;20024;-51
2021/12/31 07:55:43;;;;;;;19.88;12.35;;;;;;;12.28;63.31;99438.81;5091042;28;20025;-51
2021/12/31 07:58:09;;;;;;;11.25;8.20;;;;;;;12.40;62.80;99434.63;5092274;28;20028;-51
2021/12/31 08:00:36;;;;;;;14.88;7.68;;;;;;;12.59;61.73;99451.53;5092229;28;20301;-51
2021/12/31 08:03:02;;;;;;;17.30;8.20;;;;;;;12.70;61.36;99455.47;5090846;28;20036;-51
2021/12/31 08:05:31;;;;;;;10.52;6.65;;;;;;;12.64;61.22;99457.03;5090762;28;20562;-51
2021/12/31 08:07:56;;;;;;;11.43;5.57;;;;;;;12.72;61.41;99462.16;5092176;28;20394;-51
2021/12/31 08:10:22;;;;;;;8.68;4.65;;;;;;;12.78;61.28;99465.81;5090723;28;20031;-50
2021/12/31 08:12:48;;;;;;;15.50;7.50;;;;;;;12.93;60.47;99468.31;5092146;28;20016;-50
2021/12/31 08:15:14;;;;;;;12.60;7.57;;;;;;;13.03;60.37;99470.59;5092016;28;20078;-50
2021/12/31 08:17:40;;;;;;;10.63;5.90;;;;;;;12.86;60.69;99464.81;5090702;28;20024;-50
2021/12/31 08:20:07;;;;;;;11.77;7.65;;;;;;;12.77;61.61;99470.25;5090636;28;20111;-50
2021/12/31 08:22:33;;;;;;;7.85;3.28;;;;;;;12.62;61.58;99464.31;5090671;28;20461;-50
2021/12/31 08:24:59;;;;;;;9.90;5.20;;;;;;;12.35;61.93;99465.97;5090505;28;20122;-50
2021/12/31 08:27:24;;;;;;;7.32;5.22;;;;;;;12.54;62.17;99470.56;5091835;28;20031;-50
2021/12/31 08:29:50;;;;;;;10.35;5.35;;;;;;;13.52;60.79;99472.19;5091904;28;20016;-50
2021/12/31 08:32:16;;;;;;;12.75;5.47;;;;;;;13.92;59.12;99480.13;5091812;28;20666;-50
2021/12/31 08:34:41;;;;;;;10.77;6.85;;;;;;;14.04;58.18;99475.88;5090339;28;20043;-50
2021/12/31 08:37:07;;;;;;;65.47;47.42;;;;;;;14.32;57.77;99472.22;5090550;28;20516;-50
2021/12/31 08:39:34;;;;;;;26.27;17.55;;;;;;;14.48;56.42;99474.41;5091764;28;20031;-50
2021/12/31 08:42:01;;;;;;;20.40;15.60;;;;;;;15.09;55.73;99475.91;5090463;28;20024;-50
2021/12/31 08:44:27;;;;;;;10.23;8.32;;;;;;;15.89;53.93;99487.88;5091671;28;20024;-50
2021/12/31 08:46:53;;;;;;;14.90;11.20;;;;;;;16.81;52.80;99508.44;5094062;28;20016;-50
2021/12/31 08:49:19;;;;;;;9.40;5.25;;;;;;;17.75;51.17;99520.34;5094510;28;20035;-50
2021/12/31 08:51:46;;;;;;;16.92;8.50;;;;;;;18.39;50.61;99532.25;5095856;28;20024;-50
2021/12/31 08:54:12;;;;;;;7.93;5.18;;;;;;;18.85;48.07;99541.28;5095830;28;20063;-50
2021/12/31 08:56:38;;;;;;;8.43;6.05;;;;;;;19.18;47.32;99542.50;5095783;28;20164;-50
2021/12/31 08:59:04;;;;;;;5.32;3.83;;;;;;;19.49;46.22;99535.91;5095715;28;20036;-51
2021/12/31 09:01:30;;;;;;;8.02;5.35;;;;;;;19.74;45.94;99530.28;5094316;28;20024;-51
2021/12/31 09:03:55;;;;;;;8.05;7.25;;;;;;;19.74;45.29;99531.09;5094187;28;20028;-50
2021/12/31 09:06:21;;;;;;;6.18;4.45;;;;;;;19.85;45.08;99533.94;5094200;28;20024;-51
2021/12/31 09:08:47;;;;;;;6.28;3.70;;;;;;;19.86;43.94;99530.19;5095575;28;20017;-50
2021/12/31 09:11:15;;;;;;;6.63;4.38;;;;;;;19.85;44.43;99541.91;5094176;28;20058;-50
2021/12/31 09:13:42;;;;;;;7.75;3.80;;;;;;;20.38;43.75;99545.97;5094085;28;20116;-50
2021/12/31 09:16:09;;;;;;;6.75;4.53;;;;;;;20.90;42.87;99547.53;5095376;28;20024;-50
2021/12/31 09:18:35;;;;;;;10.10;4.20;;;;;;;21.34;42.17;99555.56;5095352;28;20055;-50
2021/12/31 09:21:00;;;;;;;10.75;4.72;;;;;;;21.85;41.19;99542.78;5094061;28;20058;-50
2021/12/31 09:23:26;;;;;;;8.27;3.38;;;;;;;21.90;40.22;99544.66;5093927;28;20068;-51
2021/12/31 09:25:52;;;;;;;18.92;4.47;;;;;;;22.00;39.14;99550.09;5095129;28;20082;-50
2021/12/31 09:28:18;;;;;;;7.18;4.63;;;;;;;22.03;39.42;99568.28;5093838;28;20024;-50
2021/12/31 09:30:44;;;;;;;13.88;7.40;;;;;;;22.36;39.10;99561.13;5093778;28;20016;-50
2021/12/31 09:33:10;;;;;;;31.85;6.93;;;;;;;22.69;38.75;99551.97;5095080;28;20077;-51
2021/12/31 09:35:36;;;;;;;6.53;3.50;;;;;;;22.81;37.57;99549.09;5093436;28;20048;-51
2021/12/31 09:38:09;;;;;;;22.83;5.10;;;;;;;23.09;37.37;99560.50;5094955;28;20031;-51
2021/12/31 09:40:36;;;;;;;10.55;3.85;;;;;;;23.29;36.79;99560.56;5094910;28;20034;-51
2021/12/31 09:43:08;;;;;;;22.58;4.20;;;;;;;23.32;36.85;99561.91;5093595;28;20027;-51
2021/12/31 09:45:36;;;;;;;92.55;9.50;;;;;;;23.52;36.66;99559.31;5094780;28;20024;-51
2021/12/31 09:48:02;;;;;;;25.63;4.85;;;;;;;23.50;35.83;99552.59;5094850;28;20107;-51
2021/12/31 09:50:28;;;;;;;15.73;4.47;;;;;;;23.24;36.18;99554.38;5094793;28;20055;-52
2021/12/31 09:52:55;;;;;;;9.57;3.47;;;;;;;22.84;36.44;99561.97;5094798;28;20367;-51
2021/12/31 09:55:42;;;;;;;19.83;4.25;;;;;;;22.58;37.01;99569.03;5094655;28;20107;-51
2021/12/31 09:58:09;;;;;;;61.80;7.00;;;;;;;22.92;37.45;99569.50;5092416;28;20544;-51
2021/12/31 10:00:36;;;;;;;94.97;8.13;;;;;;;23.67;36.08;99577.28;5094488;28;20028;-51
2021/12/31 10:03:14;;;;;;;9.48;3.25;;;;;;;23.98;35.30;99588.09;5093169;28;20012;-51
2021/12/31 10:05:45;;;;;;;29.48;4.60;;;;;;;24.09;35.43;99588.91;5094360;28;20024;-51
2021/12/31 10:08:15;;;;;;;15.43;3.90;;;;;;;24.27;34.77;99603.69;5093080;28;20058;-52
2021/12/31 10:10:41;;;;;;;8.07;4.45;;;;;;;24.54;33.89;99597.25;5093020;28;20024;-51
2021/12/31 10:13:09;;;;;;;5.00;3.08;;;;;;;24.71;33.11;99598.56;5092989;28;20028;-51
2021/12/31 10:15:40;;;;;;;13.65;5.18;;;;;;;24.66;34.12;99592.41;5092898;28;20028;-51
2021/12/31 10:18:13;;;;;;;9.23;3.95;;;;;;;24.98;33.16;99592.06;5094195;28;20032;-50
2021/12/31 10:20:50;;;;;;;12.43;4.30;;;;;;;25.49;32.90;99583.00;5094105;28;20040;-51
2021/12/31 10:23:17;;;;;;;3.80;2.75;;;;;;;25.61;31.50;99571.94;5094130;28;20016;-51
2021/12/31 10:25:43;;;;;;;5.68;3.00;;;;;;;25.00;31.55;99551.50;5094015;28;20481;-51
2021/12/31 10:28:12;;;;;;;5.78;4.20;;;;;;;24.02;32.90;99545.47;5093972;28;20020;-51
2021/12/31 10:30:38;;;;;;;9.18;3.75;;;;;;;23.46;34.43;99554.19;5092636;28;20077;-51
2021/12/31 10:33:04;;;;;;;6.95;3.15;;;;;;;23.48;34.83;99552.88;5093958;28;20025;-51
2021/12/31 10:35:47;;;;;;;3.83;2.58;;;;;;;23.09;34.83;99547.09;5092245;28;20037;-51
2021/12/31 10:38:13;;;;;;;11.23;5.28;;;;;;;23.07;35.94;99541.22;5093925;28;20028;-51
2021/12/31 10:40:45;;;;;;;11.35;3.75;;;;;;;23.37;35.47;99532.47;5092716;28;20056;-52
2021/12/31 10:43:25;;;;;;;5.68;2.22;;;;;;;22.95;34.88;99522.66;5092411;28;20616;-51
2021/12/31 10:46:20;;;;;;;3.97;2.83;;;;;;;21.45;37.73;99527.94;5092578;28;20039;-51
2021/12/31 10:48:50;;;;;;;4.80;3.45;;;;;;;21.44;38.00;99552.22;5080189;28;20029;-51
2021/12/31 10:51:36;;;;;;;6.32;2.60;;;;;;;21.49;38.44;99558.44;5092282;28;20036;-51
2021/12/31 10:54:37;;;;;;;3.08;1.95;;;;;;;21.40;39.30;99556.41;5093521;28;20089;-52
2021/12/31 10:57:04;;;;;;;4.63;2.50;;;;;;;21.73;39.30;99547.44;5093388;28;20489;-50
2021/12/31 10:59:36;;;;;;;4.00;3.13;;;;;;;22.08;38.15;99530.13;5092096;28;20494;-51
2021/12/31 11:02:04;;;;;;;12.48;4.20;;;;;;;22.90;37.55;99518.09;5093314;28;20028;-52
2021/12/31 11:04:31;;;;;;;5.43;3.20;;;;;;;23.99;36.04;99517.31;5091926;28;20095;-52
2021/12/31 11:07:00;;;;;;;8.38;4.28;;;;;;;24.55;35.21;99510.28;5091884;28;20634;-51
2021/12/31 11:09:29;;;;;;;10.90;4.13;;;;;;;25.04;34.44;99515.75;5093183;28;20028;-51
2021/12/31 11:11:57;;;;;;;6.70;4.05;;;;;;;25.37;33.65;99512.66;5091900;28;20409;-52
2021/12/31 11:14:24;;;;;;;9.98;4.13;;;;;;;25.83;33.49;99526.59;5091783;28;20024;-52
2021/12/31 11:16:49;;;;;;;6.88;3.53;;;;;;;26.43;32.64;99526.38;5093057;28;20031;-51
2021/12/31 11:19:16;;;;;;;4.07;2.58;;;;;;;26.85;31.42;99524.88;5093038;28;20020;-51
2021/12/31 11:21:43;;;;;;;7.32;3.83;;;;;;;27.22;31.13;99542.19;5092894;28;20508;-52
2021/12/31 11:24:34;;;;;;;3.25;2.30;;;;;;;27.19;30.40;99542.78;5092901;28;20063;-51
2021/12/31 11:27:32;;;;;;;8.65;2.78;;;;;;;27.14;30.84;99542.84;5091751;28;20110;-51
2021/12/31 11:29:59;;;;;;;7.07;2.58;;;;;;;27.50;30.38;99531.59;5092843;28;20494;-51